createdAt,value
2023-01-01T00:01:54.586Z,40.17
2023-01-01T00:04:22.635Z,96.23
2023-01-01T00:06:50.480Z,58.40
2023-01-01T00:09:35.805Z,158.07
2023-01-01T00:12:03.601Z,90.23
2023-01-01T00:14:32.763Z,75.43
2023-01-01T00:17:00.850Z,122.00
2023-01-01T00:19:28.676Z,294.63
2023-01-01T00:21:56.382Z,573.13
2023-01-01T00:24:24.289Z,401.27
2023-01-01T00:26:55.187Z,229.63
2023-01-01T00:29:22.927Z,215.87
2023-01-01T00:31:52.276Z,125.83
2023-01-01T00:34:20.148Z,176.37
2023-01-01T00:36:47.961Z,164.80
2023-01-01T00:39:15.996Z,136.27
2023-01-01T00:41:43.790Z,91.70
2023-01-01T00:44:11.681Z,84.57
2023-01-01T00:46:39.563Z,144.57
2023-01-01T00:49:08.715Z,53.63
2023-01-01T00:51:37.328Z,22.03
2023-01-01T00:54:05.292Z,29.97
2023-01-01T00:56:33.587Z,34.80
2023-01-01T00:59:01.971Z,28.30
2023-01-01T01:01:29.992Z,35.10
2023-01-01T01:03:57.899Z,27.03
2023-01-01T01:06:27.257Z,33.80
2023-01-01T01:08:55.174Z,34.37
2023-01-01T01:11:24.858Z,36.83
2023-01-01T01:13:54.280Z,37.17
2023-01-01T01:16:25.190Z,17.37
2023-01-01T01:18:54.355Z,34.00
2023-01-01T01:21:24.867Z,23.90
2023-01-01T01:23:55.041Z,26.33
2023-01-01T01:26:25.183Z,18.03
2023-01-01T01:28:54.025Z,19.10
2023-01-01T01:31:24.154Z,18.10
2023-01-01T01:33:52.875Z,18.20
2023-01-01T01:36:20.769Z,35.63
2023-01-01T01:38:48.723Z,17.47
2023-01-01T01:41:28.002Z,14.67
2023-01-01T01:43:59.355Z,24.13
2023-01-01T01:46:32.493Z,12.00
2023-01-01T01:49:04.845Z,18.93
2023-01-01T01:51:37.779Z,18.07
2023-01-01T01:54:10.111Z,21.33
2023-01-01T01:56:48.405Z,17.00
2023-01-01T01:59:18.282Z,16.57
2023-01-01T02:01:46.297Z,19.87
2023-01-01T02:04:14.356Z,32.43
2023-01-01T02:06:42.294Z,14.13
2023-01-01T02:09:10.847Z,13.30
2023-01-01T02:11:40.251Z,9.40
2023-01-01T02:14:08.983Z,14.70
2023-01-01T02:16:40.766Z,11.37
2023-01-01T02:19:18.320Z,14.83
2023-01-01T02:21:57.455Z,12.33
2023-01-01T02:24:41.703Z,12.10
2023-01-01T02:27:16.582Z,10.03
2023-01-01T02:29:49.911Z,10.97
2023-01-01T02:32:22.900Z,10.40
2023-01-01T02:34:56.036Z,15.17
2023-01-01T02:37:27.709Z,7.73
2023-01-01T02:39:58.234Z,11.83
2023-01-01T02:42:30.101Z,9.57
2023-01-01T02:45:01.300Z,7.73
2023-01-01T02:47:29.094Z,19.73
2023-01-01T02:50:03.382Z,19.00
2023-01-01T02:52:50.095Z,13.93
2023-01-01T02:55:27.998Z,28.33
2023-01-01T02:58:24.024Z,17.93
2023-01-01T03:00:57.907Z,14.43
2023-01-01T03:03:30.556Z,16.80
2023-01-01T03:06:24.210Z,9.03
2023-01-01T03:08:59.334Z,14.20
2023-01-01T03:11:37.186Z,15.00
2023-01-01T03:14:09.234Z,10.27
2023-01-01T03:16:41.907Z,7.37
2023-01-01T03:19:15.465Z,7.93
2023-01-01T03:21:47.085Z,8.03
2023-01-01T03:24:21.544Z,8.30
2023-01-01T03:26:54.031Z,7.83
2023-01-01T03:29:24.682Z,6.73
2023-01-01T03:31:57.990Z,7.77
2023-01-01T03:34:31.178Z,7.43
2023-01-01T03:37:01.715Z,9.70
2023-01-01T03:39:35.699Z,11.00
2023-01-01T03:42:13.841Z,7.07
2023-01-01T03:44:47.753Z,7.00
2023-01-01T03:47:17.829Z,6.43
2023-01-01T03:49:46.406Z,13.07
2023-01-01T03:52:24.846Z,9.57
2023-01-01T03:54:59.208Z,7.03
2023-01-01T03:57:34.228Z,9.87
2023-01-01T04:00:08.833Z,11.20
2023-01-01T04:02:42.949Z,5.27
2023-01-01T04:05:11.304Z,9.07
2023-01-01T04:10:18.046Z,6.67
2023-01-01T04:12:48.394Z,12.33
2023-01-01T04:15:16.733Z,8.87
2023-01-01T04:17:46.552Z,7.97
2023-01-01T04:20:14.861Z,9.03
2023-01-01T04:22:42.767Z,7.60
2023-01-01T04:25:11.920Z,9.10
2023-01-01T04:27:40.645Z,10.07
2023-01-01T04:30:11.575Z,6.50
2023-01-01T04:32:41.375Z,10.73
2023-01-01T04:35:13.106Z,9.37
2023-01-01T04:37:41.799Z,7.80
2023-01-01T04:40:11.421Z,9.43
2023-01-01T04:42:39.475Z,8.93
2023-01-01T04:45:08.308Z,8.07
2023-01-01T04:47:36.149Z,7.97
2023-01-01T04:50:04.165Z,7.50
2023-01-01T04:52:33.334Z,8.37
2023-01-01T04:55:01.112Z,8.23
2023-01-01T04:57:30.816Z,6.60
2023-01-01T04:59:58.577Z,7.37
2023-01-01T05:02:27.475Z,10.67
2023-01-01T05:04:55.295Z,7.77
2023-01-01T05:07:23.455Z,5.63
2023-01-01T05:09:52.653Z,6.13
2023-01-01T05:12:20.455Z,7.47
2023-01-01T05:14:48.281Z,7.07
2023-01-01T05:17:16.023Z,6.93
2023-01-01T05:19:43.764Z,6.80
2023-01-01T05:22:11.593Z,8.93
2023-01-01T05:24:39.319Z,7.47
2023-01-01T05:27:08.736Z,6.57
2023-01-01T05:29:36.533Z,5.27
2023-01-01T05:32:04.589Z,5.13
2023-01-01T05:36:59.039Z,10.27
2023-01-01T05:39:26.814Z,5.07
2023-01-01T05:41:54.483Z,5.80
2023-01-01T05:44:23.618Z,6.43
2023-01-01T05:46:51.447Z,7.13
2023-01-01T05:49:19.200Z,5.87
2023-01-01T05:51:46.896Z,4.47
2023-01-01T05:56:41.649Z,4.73
2023-01-01T05:59:11.081Z,5.20
2023-01-01T06:01:45.401Z,4.50
2023-01-01T06:04:14.079Z,6.83
2023-01-01T06:06:42.001Z,8.10
2023-01-01T06:09:11.520Z,8.57
2023-01-01T06:11:39.379Z,7.17
2023-01-01T06:14:07.267Z,5.57
2023-01-01T06:16:35.051Z,4.87
2023-01-01T06:19:04.323Z,10.73
2023-01-01T06:21:32.100Z,8.40
2023-01-01T06:24:01.088Z,5.50
2023-01-01T06:26:31.015Z,5.47
2023-01-01T06:28:59.684Z,4.97
2023-01-01T06:31:29.063Z,6.23
2023-01-01T06:33:57.126Z,4.63
2023-01-01T06:36:27.018Z,5.67
2023-01-01T06:38:56.804Z,5.07
2023-01-01T06:41:26.691Z,4.90
2023-01-01T06:43:56.232Z,6.47
2023-01-01T06:46:25.960Z,5.77
2023-01-01T06:48:55.988Z,9.67
2023-01-01T06:51:27.302Z,6.20
2023-01-01T06:53:55.576Z,5.43
2023-01-01T06:56:23.447Z,9.70
2023-01-01T06:58:51.343Z,7.10
2023-01-01T07:01:21.158Z,6.90
2023-01-01T07:03:52.899Z,7.83
2023-01-01T07:06:20.956Z,8.83
2023-01-01T07:08:54.516Z,7.87
2023-01-01T07:11:22.764Z,6.43
2023-01-01T07:13:50.929Z,6.20
2023-01-01T07:16:19.004Z,10.53
2023-01-01T07:18:49.240Z,7.83
2023-01-01T07:21:29.684Z,5.23
2023-01-01T07:24:00.443Z,6.80
2023-01-01T07:26:29.632Z,5.37
2023-01-01T07:29:04.569Z,3.47
2023-01-01T07:31:35.146Z,8.33
2023-01-01T07:34:03.204Z,5.60
2023-01-01T07:36:31.086Z,5.77
2023-01-01T07:39:00.331Z,6.73
2023-01-01T07:41:28.184Z,5.13
2023-01-01T07:43:56.097Z,7.93
2023-01-01T07:46:24.020Z,10.37
2023-01-01T07:48:51.986Z,7.27
2023-01-01T07:51:19.889Z,5.47
2023-01-01T07:53:47.742Z,9.03
2023-01-01T07:56:17.125Z,5.13
2023-01-01T07:58:44.976Z,6.37
2023-01-01T08:01:14.701Z,8.70
2023-01-01T08:03:43.528Z,9.23
2023-01-01T08:06:13.069Z,4.77
2023-01-01T08:08:42.820Z,12.07
2023-01-01T08:11:11.001Z,43.23
2023-01-01T08:13:40.527Z,7.63
2023-01-01T08:16:09.414Z,8.07
2023-01-01T08:18:37.609Z,7.10
2023-01-01T08:21:06.525Z,10.93
2023-01-01T08:23:34.410Z,7.27
2023-01-01T08:26:03.096Z,7.40
2023-01-01T08:28:32.044Z,6.80
2023-01-01T08:31:01.442Z,5.37
2023-01-01T08:33:29.486Z,8.73
2023-01-01T08:35:57.653Z,8.07
2023-01-01T08:38:25.734Z,11.17
2023-01-01T08:40:53.787Z,5.90
2023-01-01T08:43:21.592Z,5.80
2023-01-01T08:45:49.445Z,6.30
2023-01-01T08:48:18.627Z,8.93
2023-01-01T08:50:46.394Z,5.30
2023-01-01T08:53:14.165Z,5.20
2023-01-01T08:55:41.970Z,7.60
2023-01-01T08:58:09.838Z,4.30
2023-01-01T09:00:37.740Z,11.10
2023-01-01T09:03:05.664Z,9.67
2023-01-01T09:05:35.001Z,7.87
2023-01-01T09:08:02.851Z,9.03
2023-01-01T09:10:31.325Z,6.93
2023-01-01T09:12:59.288Z,4.70
2023-01-01T09:15:27.209Z,5.83
2023-01-01T09:17:55.100Z,6.00
2023-01-01T09:20:23.465Z,4.07
2023-01-01T09:22:52.861Z,4.53
2023-01-01T09:25:21.113Z,5.63
2023-01-01T09:27:49.112Z,6.03
2023-01-01T09:30:20.823Z,9.47
2023-01-01T09:32:49.103Z,6.63
2023-01-01T09:35:17.229Z,6.80
2023-01-01T09:37:45.770Z,5.07
2023-01-01T09:40:27.529Z,10.87
2023-01-01T09:43:05.136Z,6.53
2023-01-01T09:45:38.766Z,4.40
2023-01-01T09:48:11.662Z,5.73
2023-01-01T09:50:41.652Z,9.30
2023-01-01T09:53:14.448Z,7.10
2023-01-01T09:55:49.724Z,8.30
2023-01-01T09:58:26.374Z,6.00
2023-01-01T10:00:56.637Z,4.47
2023-01-01T10:03:40.482Z,5.73
2023-01-01T10:06:20.734Z,6.90
2023-01-01T10:09:10.804Z,6.37
2023-01-01T10:11:50.578Z,3.87
2023-01-01T10:14:25.338Z,5.63
2023-01-01T10:16:57.076Z,7.50
2023-01-01T10:19:31.702Z,5.33
2023-01-01T10:22:07.006Z,6.70
2023-01-01T10:24:45.844Z,7.83
2023-01-01T10:27:30.026Z,5.40
2023-01-01T10:30:03.683Z,3.40
2023-01-01T10:32:35.172Z,7.03
2023-01-01T10:35:04.929Z,8.20
2023-01-01T10:37:37.108Z,7.60
2023-01-01T10:40:08.805Z,5.27
2023-01-01T10:42:38.023Z,7.53
2023-01-01T10:45:06.810Z,6.40
2023-01-01T10:47:34.623Z,5.33
2023-01-01T10:50:07.751Z,6.43
2023-01-01T10:52:37.534Z,5.00
2023-01-01T10:55:06.732Z,6.80
2023-01-01T10:57:38.779Z,4.43
2023-01-01T11:00:28.451Z,5.43
2023-01-01T11:03:15.582Z,8.30
2023-01-01T11:06:02.849Z,5.23
2023-01-01T11:08:31.786Z,6.43
2023-01-01T11:11:01.722Z,4.80
2023-01-01T11:13:32.522Z,7.47
2023-01-01T11:16:01.429Z,7.03
2023-01-01T11:18:36.146Z,8.63
2023-01-01T11:21:06.827Z,7.13
2023-01-01T11:23:36.831Z,5.43
2023-01-01T11:26:20.250Z,5.37
2023-01-01T11:29:02.058Z,5.57
2023-01-01T11:31:34.568Z,3.67
2023-01-01T11:34:03.817Z,10.10
2023-01-01T11:36:33.628Z,5.93
2023-01-01T11:39:20.930Z,7.37
2023-01-01T11:41:54.122Z,7.40
2023-01-01T11:44:36.006Z,5.50
2023-01-01T11:47:05.995Z,4.37
2023-01-01T11:49:34.549Z,7.87
2023-01-01T11:52:22.815Z,3.93
2023-01-01T11:54:51.948Z,6.03
2023-01-01T11:57:24.860Z,5.47
2023-01-01T12:00:01.695Z,7.43
2023-01-01T12:02:37.724Z,3.80
2023-01-01T12:05:15.142Z,4.67
2023-01-01T12:07:45.402Z,8.30
2023-01-01T12:10:22.255Z,5.07
2023-01-01T12:12:54.502Z,8.17
2023-01-01T12:15:30.179Z,6.20
2023-01-01T12:18:04.862Z,4.23
2023-01-01T12:20:36.446Z,7.60
2023-01-01T12:23:09.350Z,6.00
2023-01-01T12:25:42.005Z,8.27
2023-01-01T12:28:26.447Z,6.90
2023-01-01T12:31:04.518Z,4.50
2023-01-01T12:33:45.831Z,7.73
2023-01-01T12:36:26.884Z,8.17
2023-01-01T12:39:55.444Z,4.37
2023-01-01T12:42:35.581Z,4.37
2023-01-01T12:45:30.723Z,5.43
2023-01-01T12:48:07.252Z,7.47
2023-01-01T12:50:49.574Z,6.70
2023-01-01T12:53:32.966Z,7.57
2023-01-01T12:56:10.989Z,4.50
2023-01-01T12:58:43.407Z,6.10
2023-01-01T13:01:15.604Z,7.60
2023-01-01T13:03:51.712Z,6.23
2023-01-01T13:06:28.476Z,7.90
2023-01-01T13:09:03.721Z,5.67
2023-01-01T13:11:38.584Z,7.27
2023-01-01T13:14:11.133Z,6.33
2023-01-01T13:16:41.449Z,5.93
2023-01-01T13:19:26.334Z,8.63
2023-01-01T13:21:54.283Z,9.47
2023-01-01T13:24:24.368Z,6.77
2023-01-01T13:26:52.251Z,5.93
2023-01-01T13:29:43.777Z,4.50
2023-01-01T13:32:13.598Z,8.23
2023-01-01T13:35:04.124Z,8.80
2023-01-01T13:37:45.823Z,7.40
2023-01-01T13:40:48.480Z,7.30
2023-01-01T13:43:37.285Z,11.03
2023-01-01T13:46:14.839Z,4.87
2023-01-01T13:49:19.951Z,6.87
2023-01-01T13:52:32.557Z,8.37
2023-01-01T13:55:30.081Z,8.80
2023-01-01T13:58:39.106Z,15.00
2023-01-01T14:01:37.668Z,14.97
2023-01-01T14:04:09.895Z,7.17
2023-01-01T14:06:43.456Z,8.93
2023-01-01T14:09:14.792Z,11.60
2023-01-01T14:11:43.266Z,6.17
2023-01-01T14:14:24.272Z,7.23
2023-01-01T14:16:55.361Z,10.53
2023-01-01T14:19:24.769Z,7.93
2023-01-01T14:21:53.964Z,9.90
2023-01-01T14:24:25.072Z,6.97
2023-01-01T14:26:55.065Z,8.77
2023-01-01T14:29:28.078Z,10.73
2023-01-01T14:32:01.161Z,9.03
2023-01-01T14:34:31.819Z,9.47
2023-01-01T14:37:02.067Z,12.83
2023-01-01T14:39:31.788Z,11.80
2023-01-01T14:42:03.432Z,5.27
2023-01-01T14:44:35.684Z,9.77
2023-01-01T14:47:06.067Z,9.80
2023-01-01T14:49:38.463Z,12.27
2023-01-01T14:52:10.761Z,9.93
2023-01-01T14:54:42.343Z,13.10
2023-01-01T14:57:14.974Z,13.37
2023-01-01T14:59:47.589Z,16.37
2023-01-01T15:02:19.365Z,10.90
2023-01-01T15:04:47.386Z,6.90
2023-01-01T15:07:22.775Z,6.70
2023-01-01T15:09:52.090Z,11.17
2023-01-01T15:12:20.963Z,8.93
2023-01-01T15:14:50.832Z,15.17
2023-01-01T15:17:22.600Z,11.10
2023-01-01T15:20:03.183Z,14.27
2023-01-01T15:22:33.944Z,11.53
2023-01-01T15:25:03.244Z,11.90
2023-01-01T15:27:34.042Z,10.33
2023-01-01T15:30:05.888Z,10.10
2023-01-01T15:32:39.581Z,15.87
2023-01-01T15:35:19.109Z,12.93
2023-01-01T15:37:49.717Z,12.43
2023-01-01T15:40:36.150Z,13.43
2023-01-01T15:43:14.592Z,11.80
2023-01-01T15:45:44.162Z,10.20
2023-01-01T15:48:22.096Z,11.57
2023-01-01T15:51:11.953Z,11.57
2023-01-01T15:53:54.435Z,13.03
2023-01-01T15:56:25.477Z,13.40
2023-01-01T15:58:56.456Z,8.93
2023-01-01T16:01:27.071Z,11.63
2023-01-01T16:04:04.296Z,21.37
2023-01-01T16:06:32.304Z,25.13
2023-01-01T16:09:00.118Z,22.30
2023-01-01T16:11:28.056Z,18.67
2023-01-01T16:13:55.876Z,24.47
2023-01-01T16:16:31.212Z,17.23
2023-01-01T16:19:01.289Z,26.87
2023-01-01T16:21:30.948Z,20.63
2023-01-01T16:24:01.833Z,16.53
2023-01-01T16:26:29.638Z,13.17
2023-01-01T16:28:57.458Z,15.57
2023-01-01T16:31:28.606Z,17.03
2023-01-01T16:33:58.701Z,13.17
2023-01-01T16:36:29.151Z,22.50
2023-01-01T16:38:57.696Z,22.03
2023-01-01T16:41:28.638Z,16.43
2023-01-01T16:43:56.432Z,11.93
2023-01-01T16:46:24.533Z,16.97
2023-01-01T16:48:52.603Z,11.67
2023-01-01T16:51:24.061Z,14.03
2023-01-01T16:53:55.346Z,18.80
2023-01-01T16:56:23.259Z,18.40
2023-01-01T16:58:54.226Z,15.77
2023-01-01T17:01:26.122Z,12.13
2023-01-01T17:03:54.025Z,14.73
2023-01-01T17:06:21.946Z,20.97
2023-01-01T17:08:49.843Z,43.93
2023-01-01T17:11:20.502Z,40.53
2023-01-01T17:13:49.403Z,24.93
2023-01-01T17:16:26.028Z,32.60
2023-01-01T17:21:44.514Z,35.73
2023-01-01T17:24:12.431Z,24.50
2023-01-01T17:26:41.883Z,26.03
2023-01-01T17:29:10.071Z,18.83
2023-01-01T17:31:38.108Z,17.37
2023-01-01T17:34:06.026Z,20.57
2023-01-01T17:36:33.802Z,30.17
2023-01-01T17:39:01.734Z,27.40
2023-01-01T17:41:29.470Z,25.27
2023-01-01T17:43:58.778Z,26.67
2023-01-01T17:46:29.747Z,28.00
2023-01-01T17:48:58.097Z,32.80
2023-01-01T17:51:26.309Z,18.27
2023-01-01T17:53:54.847Z,24.47
2023-01-01T17:56:23.890Z,26.50
2023-01-01T17:58:53.545Z,20.57
2023-01-01T18:01:31.122Z,20.47
2023-01-01T18:04:01.745Z,23.33
2023-01-01T18:06:30.880Z,21.47
2023-01-01T18:09:00.154Z,20.90
2023-01-01T18:11:29.633Z,19.93
2023-01-01T18:13:57.631Z,18.67
2023-01-01T18:16:27.243Z,19.13
2023-01-01T18:18:55.933Z,18.90
2023-01-01T18:21:24.619Z,16.10
2023-01-01T18:23:54.646Z,19.90
2023-01-01T18:26:23.659Z,17.23
2023-01-01T18:28:55.352Z,19.00
2023-01-01T18:31:24.176Z,18.47
2023-01-01T18:33:54.917Z,19.17
2023-01-01T18:36:24.856Z,24.93
2023-01-01T18:38:58.580Z,29.67
2023-01-01T18:41:48.912Z,22.93
2023-01-01T18:44:21.133Z,14.50
2023-01-01T18:46:55.488Z,14.03
2023-01-01T18:49:25.737Z,15.73
2023-01-01T18:51:57.670Z,32.30
2023-01-01T18:54:26.393Z,30.30
2023-01-01T18:57:02.971Z,32.07
2023-01-01T18:59:30.808Z,27.23
2023-01-01T19:01:59.295Z,18.03
2023-01-01T19:04:28.688Z,18.63
2023-01-01T19:06:56.579Z,18.93
2023-01-01T19:09:26.911Z,23.63
2023-01-01T19:11:55.666Z,23.77
2023-01-01T19:14:25.150Z,22.73
2023-01-01T19:16:57.356Z,14.00
2023-01-01T19:19:27.289Z,25.77
2023-01-01T19:22:07.508Z,18.17
2023-01-01T19:24:37.196Z,108.07
2023-01-01T19:27:14.567Z,44.23
2023-01-01T19:29:44.771Z,20.10
2023-01-01T19:32:12.888Z,22.07
2023-01-01T19:34:40.966Z,17.00
2023-01-01T19:37:10.969Z,10.73
2023-01-01T19:39:41.026Z,13.47
2023-01-01T19:42:08.911Z,12.23
2023-01-01T19:44:37.521Z,13.47
2023-01-01T19:47:05.832Z,7.80
2023-01-01T19:49:33.671Z,12.47
2023-01-01T19:52:01.517Z,7.47
2023-01-01T19:54:30.798Z,9.07
2023-01-01T19:56:58.598Z,11.23
2023-01-01T19:59:33.040Z,22.53
2023-01-01T20:04:50.214Z,8.67
2023-01-01T20:07:18.523Z,8.57
2023-01-01T20:09:47.706Z,13.27
2023-01-01T20:12:15.566Z,11.93
2023-01-01T20:14:43.927Z,14.20
2023-01-01T20:17:11.773Z,17.27
2023-01-01T20:19:40.268Z,8.50
2023-01-01T20:22:14.148Z,15.10
2023-01-01T20:24:42.481Z,13.23
2023-01-01T20:27:12.342Z,20.10
2023-01-01T20:29:40.662Z,11.87
2023-01-01T20:32:12.462Z,11.17
2023-01-01T20:34:40.540Z,14.27
2023-01-01T20:37:26.804Z,9.57
2023-01-01T20:39:54.740Z,14.20
2023-01-01T20:42:23.970Z,12.63
2023-01-01T20:44:51.958Z,12.50
2023-01-01T20:47:19.744Z,14.33
2023-01-01T20:49:47.615Z,11.13
2023-01-01T20:52:15.551Z,11.93
2023-01-01T20:54:43.328Z,10.50
2023-01-01T20:57:11.207Z,9.30
2023-01-01T20:59:40.314Z,12.63
2023-01-01T21:02:10.090Z,13.77
2023-01-01T21:04:39.859Z,11.63
2023-01-01T21:07:09.326Z,8.93
2023-01-01T21:09:37.366Z,12.77
2023-01-01T21:12:06.267Z,17.33
2023-01-01T21:14:34.388Z,11.77
2023-01-01T21:17:08.746Z,11.23
2023-01-01T21:19:37.006Z,20.60
2023-01-01T21:22:08.271Z,13.73
2023-01-01T21:24:38.541Z,15.50
2023-01-01T21:27:14.416Z,9.67
2023-01-01T21:29:46.029Z,9.57
2023-01-01T21:32:21.487Z,7.83
2023-01-01T21:34:51.376Z,6.93
2023-01-01T21:37:41.777Z,6.53
2023-01-01T21:40:36.280Z,9.67
2023-01-01T21:43:18.794Z,9.00
2023-01-01T21:45:48.325Z,10.13
2023-01-01T21:48:19.800Z,20.03
2023-01-01T21:50:52.009Z,9.83
2023-01-01T21:53:21.680Z,13.67
2023-01-01T21:55:54.981Z,8.10
2023-01-01T21:58:41.923Z,9.20
2023-01-01T22:01:19.971Z,9.57
2023-01-01T22:03:52.160Z,10.23
2023-01-01T22:06:20.018Z,9.10
2023-01-01T22:08:48.311Z,9.23
2023-01-01T22:11:26.333Z,10.93
2023-01-01T22:13:54.576Z,10.07
2023-01-01T22:16:28.537Z,13.73
2023-01-01T22:18:57.936Z,14.87
2023-01-01T22:21:26.165Z,13.40
2023-01-01T22:23:57.924Z,12.97
2023-01-01T22:26:28.448Z,14.30
2023-01-01T22:28:59.806Z,7.57
2023-01-01T22:31:32.112Z,10.70
2023-01-01T22:34:04.539Z,12.07
2023-01-01T22:36:37.708Z,11.13
2023-01-01T22:39:13.703Z,8.20
2023-01-01T22:41:43.332Z,12.67
2023-01-01T22:44:13.040Z,12.47
2023-01-01T22:46:41.989Z,9.90
2023-01-01T22:49:19.304Z,12.67
2023-01-01T22:51:48.478Z,8.57
2023-01-01T22:54:16.403Z,12.50
2023-01-01T22:56:44.227Z,12.17
2023-01-01T22:59:12.102Z,8.07
2023-01-01T23:01:40.247Z,11.50
2023-01-01T23:04:08.371Z,10.90
2023-01-01T23:06:37.982Z,8.50
2023-01-01T23:09:08.521Z,13.13
2023-01-01T23:11:36.328Z,10.03
2023-01-01T23:14:21.882Z,21.23
2023-01-01T23:16:50.094Z,11.03
2023-01-01T23:19:17.981Z,10.67
2023-01-01T23:21:47.637Z,11.97
2023-01-01T23:24:18.074Z,15.23
2023-01-01T23:26:47.192Z,11.57
2023-01-01T23:29:19.035Z,7.87
2023-01-01T23:31:47.688Z,10.30
2023-01-01T23:34:16.293Z,12.77
2023-01-01T23:36:44.882Z,10.10
2023-01-01T23:39:14.270Z,10.97
2023-01-01T23:41:42.041Z,11.50
2023-01-01T23:44:09.855Z,9.10
2023-01-01T23:46:38.950Z,10.00
2023-01-01T23:49:07.457Z,12.80
2023-01-01T23:51:35.572Z,10.27
2023-01-01T23:54:03.580Z,9.17
2023-01-01T23:56:32.721Z,12.20
2023-01-01T23:59:00.688Z,10.50
